createdAt,value
2023-03-16T00:01:26.751Z,7.95
2023-03-16T00:03:55.853Z,8.77
2023-03-16T00:06:25.666Z,10.50
2023-03-16T00:08:59.130Z,8.93
2023-03-16T00:11:27.280Z,8.85
2023-03-16T00:13:55.109Z,8.30
2023-03-16T00:16:23.013Z,8.52
2023-03-16T00:18:50.831Z,8.65
2023-03-16T00:21:19.977Z,8.70
2023-03-16T00:23:47.990Z,10.30
2023-03-16T00:26:15.760Z,9.55
2023-03-16T00:28:43.536Z,8.68
2023-03-16T00:31:14.694Z,8.88
2023-03-16T00:33:43.697Z,8.68
2023-03-16T00:36:11.819Z,8.02
2023-03-16T00:38:45.362Z,8.88
2023-03-16T00:41:15.222Z,8.40
2023-03-16T00:43:45.339Z,8.43
2023-03-16T00:46:14.847Z,9.15
2023-03-16T00:48:46.981Z,8.32
2023-03-16T00:51:16.783Z,8.82
2023-03-16T00:53:47.200Z,8.82
2023-03-16T00:56:15.107Z,8.70
2023-03-16T00:58:43.956Z,9.55
2023-03-16T01:01:14.160Z,9.27
2023-03-16T01:03:42.595Z,9.45
2023-03-16T01:06:13.477Z,10.10
2023-03-16T01:08:42.866Z,8.80
2023-03-16T01:11:16.199Z,9.50
2023-03-16T01:13:44.520Z,9.18
2023-03-16T01:16:12.726Z,9.85
2023-03-16T01:18:41.411Z,9.73
2023-03-16T01:21:13.705Z,9.90
2023-03-16T01:23:42.786Z,9.45
2023-03-16T01:26:12.636Z,9.93
2023-03-16T01:28:40.506Z,9.00
2023-03-16T01:31:10.566Z,9.32
2023-03-16T01:33:39.144Z,10.05
2023-03-16T01:36:09.630Z,9.13
2023-03-16T01:38:37.786Z,9.27
2023-03-16T01:41:06.159Z,9.60
2023-03-16T01:43:37.437Z,9.90
2023-03-16T01:46:22.727Z,9.10
2023-03-16T01:48:57.823Z,8.93
2023-03-16T01:51:30.301Z,9.68
2023-03-16T01:54:02.594Z,9.45
2023-03-16T01:56:35.466Z,10.07
2023-03-16T01:59:09.806Z,9.30
2023-03-16T02:01:37.965Z,9.70
2023-03-16T02:04:15.704Z,9.98
2023-03-16T02:06:44.478Z,10.20
2023-03-16T02:09:13.052Z,10.05
2023-03-16T02:11:41.531Z,9.68
2023-03-16T02:14:12.662Z,9.90
2023-03-16T02:16:41.561Z,9.50
2023-03-16T02:19:14.026Z,9.60
2023-03-16T02:21:49.821Z,10.23
2023-03-16T02:24:17.642Z,10.25
2023-03-16T02:26:50.080Z,10.30
2023-03-16T02:29:32.982Z,10.00
2023-03-16T02:32:02.907Z,10.00
2023-03-16T02:34:30.920Z,10.32
2023-03-16T02:37:00.749Z,10.57
2023-03-16T02:39:28.720Z,10.38
2023-03-16T02:41:56.549Z,11.38
2023-03-16T02:44:28.586Z,11.07
2023-03-16T02:47:01.171Z,10.23
2023-03-16T02:49:37.440Z,10.63
2023-03-16T02:52:05.553Z,10.57
2023-03-16T02:54:33.428Z,11.57
2023-03-16T02:57:01.447Z,11.43
2023-03-16T02:59:29.237Z,11.65
2023-03-16T03:01:57.025Z,11.77
2023-03-16T03:04:24.924Z,12.00
2023-03-16T03:06:54.104Z,12.40
2023-03-16T03:09:22.074Z,12.43
2023-03-16T03:11:50.582Z,12.23
2023-03-16T03:14:18.384Z,11.65
2023-03-16T03:16:46.750Z,11.35
2023-03-16T03:19:14.989Z,11.73
2023-03-16T03:21:42.950Z,12.52
2023-03-16T03:24:12.589Z,13.90
2023-03-16T03:26:40.427Z,14.25
2023-03-16T03:29:08.342Z,15.18
2023-03-16T03:31:36.415Z,15.13
2023-03-16T03:34:06.585Z,15.50
2023-03-16T03:36:35.417Z,16.50
2023-03-16T03:39:04.980Z,16.05
2023-03-16T03:41:34.692Z,20.33
2023-03-16T03:44:02.529Z,22.30
2023-03-16T03:46:30.458Z,24.55
2023-03-16T03:49:03.502Z,23.63
2023-03-16T03:51:31.970Z,24.67
2023-03-16T03:54:00.103Z,24.77
2023-03-16T03:56:28.031Z,24.50
2023-03-16T03:58:57.148Z,24.40
2023-03-16T04:01:25.042Z,24.88
2023-03-16T04:03:52.856Z,24.25
2023-03-16T04:06:20.616Z,24.98
2023-03-16T04:08:48.583Z,24.55
2023-03-16T04:11:16.385Z,23.13
2023-03-16T04:13:44.266Z,23.50
2023-03-16T04:16:16.040Z,23.75
2023-03-16T04:18:45.310Z,24.40
2023-03-16T04:21:16.926Z,24.58
2023-03-16T04:23:45.255Z,23.30
2023-03-16T04:26:13.363Z,24.40
2023-03-16T04:28:41.306Z,24.17
2023-03-16T04:31:11.366Z,25.35
2023-03-16T04:33:42.283Z,23.90
2023-03-16T04:36:10.236Z,23.80
2023-03-16T04:38:38.117Z,24.65
2023-03-16T04:41:07.761Z,23.58
2023-03-16T04:43:35.625Z,24.00
2023-03-16T04:46:04.669Z,24.77
2023-03-16T04:48:33.290Z,24.48
2023-03-16T04:51:03.781Z,23.95
2023-03-16T04:53:32.493Z,24.48
2023-03-16T04:56:00.799Z,24.67
2023-03-16T04:58:28.620Z,24.83
2023-03-16T05:00:56.876Z,24.90
2023-03-16T05:03:24.780Z,25.90
2023-03-16T05:05:52.725Z,26.55
2023-03-16T05:08:21.995Z,26.90
2023-03-16T05:10:50.184Z,25.20
2023-03-16T05:13:18.086Z,24.97
2023-03-16T05:15:46.010Z,24.83
2023-03-16T05:18:13.861Z,25.25
2023-03-16T05:20:42.097Z,26.17
2023-03-16T05:23:09.849Z,24.75
2023-03-16T05:25:40.364Z,25.07
2023-03-16T05:28:08.140Z,25.17
2023-03-16T05:30:36.787Z,24.25
2023-03-16T05:33:05.023Z,24.00
2023-03-16T05:35:32.926Z,24.65
2023-03-16T05:38:00.941Z,24.88
2023-03-16T05:40:29.197Z,23.80
2023-03-16T05:43:00.273Z,24.25
2023-03-16T05:45:28.750Z,23.85
2023-03-16T05:47:56.564Z,23.75
2023-03-16T05:50:24.684Z,23.52
2023-03-16T05:52:52.967Z,23.52
2023-03-16T05:55:20.969Z,22.83
2023-03-16T05:57:48.807Z,22.15
2023-03-16T06:00:19.337Z,21.65
2023-03-16T06:02:48.968Z,22.35
2023-03-16T06:05:18.930Z,21.15
2023-03-16T06:07:47.903Z,22.23
2023-03-16T06:10:16.195Z,21.52
2023-03-16T06:12:44.598Z,20.67
2023-03-16T06:15:13.261Z,21.08
2023-03-16T06:17:42.598Z,21.10
2023-03-16T06:20:13.020Z,20.50
2023-03-16T06:22:42.355Z,20.33
2023-03-16T06:25:12.795Z,19.40
2023-03-16T06:27:40.734Z,18.70
2023-03-16T06:30:11.900Z,19.20
2023-03-16T06:32:42.936Z,18.60
2023-03-16T06:35:11.327Z,18.02
2023-03-16T06:37:39.483Z,18.70
2023-03-16T06:40:09.218Z,18.70
2023-03-16T06:42:37.109Z,18.58
2023-03-16T06:45:05.559Z,18.38
2023-03-16T06:47:33.453Z,17.50
2023-03-16T06:50:02.685Z,18.05
2023-03-16T06:52:30.490Z,17.83
2023-03-16T06:54:58.751Z,17.35
2023-03-16T06:57:26.678Z,17.50
2023-03-16T06:59:54.896Z,16.88
2023-03-16T07:02:23.623Z,16.83
2023-03-16T07:04:51.508Z,17.20
2023-03-16T07:07:21.855Z,16.75
2023-03-16T07:09:49.710Z,16.27
2023-03-16T07:12:17.513Z,17.10
2023-03-16T07:14:46.776Z,16.75
2023-03-16T07:17:16.734Z,17.08
2023-03-16T07:19:44.607Z,17.95
2023-03-16T07:22:12.737Z,18.38
2023-03-16T07:24:43.719Z,18.05
2023-03-16T07:27:12.628Z,17.95
2023-03-16T07:29:40.535Z,17.98
2023-03-16T07:32:08.731Z,18.37
2023-03-16T07:34:36.631Z,17.85
2023-03-16T07:37:04.366Z,17.55
2023-03-16T07:39:32.634Z,17.60
2023-03-16T07:42:02.398Z,18.00
2023-03-16T07:44:31.172Z,17.80
2023-03-16T07:46:59.119Z,17.58
2023-03-16T07:49:27.662Z,18.58
2023-03-16T07:51:55.512Z,18.10
2023-03-16T07:54:24.257Z,17.40
2023-03-16T07:56:52.228Z,16.88
2023-03-16T07:59:21.541Z,17.35
2023-03-16T08:01:49.486Z,16.90
2023-03-16T08:04:17.255Z,15.45
2023-03-16T08:06:45.352Z,16.00
2023-03-16T08:09:13.312Z,16.70
2023-03-16T08:11:41.500Z,16.23
2023-03-16T08:14:09.264Z,15.57
2023-03-16T08:16:38.440Z,15.85
2023-03-16T08:19:06.214Z,15.45
2023-03-16T08:21:35.148Z,15.70
2023-03-16T08:24:08.568Z,16.63
2023-03-16T08:26:39.227Z,16.25
2023-03-16T08:29:07.491Z,14.70
2023-03-16T08:31:35.614Z,14.77
2023-03-16T08:34:05.206Z,15.40
2023-03-16T08:36:33.447Z,15.55
2023-03-16T08:39:06.963Z,15.75
2023-03-16T08:41:35.296Z,15.00
2023-03-16T08:44:03.659Z,14.63
2023-03-16T08:46:31.707Z,14.90
2023-03-16T08:48:59.641Z,15.35
2023-03-16T08:51:29.465Z,16.27
2023-03-16T08:53:57.365Z,15.57
2023-03-16T08:56:25.356Z,14.52
2023-03-16T08:58:53.321Z,15.15
2023-03-16T09:01:22.142Z,15.80
2023-03-16T09:03:51.264Z,14.48
2023-03-16T09:06:19.844Z,15.05
2023-03-16T09:08:49.090Z,14.88
2023-03-16T09:11:19.376Z,13.73
2023-03-16T09:13:47.575Z,14.20
2023-03-16T09:16:16.825Z,14.25
2023-03-16T09:18:44.835Z,13.30
2023-03-16T09:21:14.261Z,12.45
2023-03-16T09:23:42.963Z,11.93
2023-03-16T09:26:13.436Z,12.63
2023-03-16T09:28:42.434Z,13.18
2023-03-16T09:31:11.610Z,13.40
2023-03-16T09:33:39.928Z,12.93
2023-03-16T09:36:07.891Z,12.07
2023-03-16T09:38:36.850Z,12.80
2023-03-16T09:41:09.851Z,12.00
2023-03-16T09:44:04.629Z,11.82
2023-03-16T09:46:36.658Z,12.65
2023-03-16T09:49:05.048Z,11.50
2023-03-16T09:51:45.746Z,10.98
2023-03-16T09:54:23.934Z,10.98
2023-03-16T09:56:53.820Z,12.20
2023-03-16T09:59:23.272Z,11.38
2023-03-16T10:02:02.386Z,11.00
2023-03-16T10:04:43.853Z,11.93
2023-03-16T10:07:25.822Z,10.97
2023-03-16T10:09:58.485Z,11.32
2023-03-16T10:12:32.685Z,11.10
2023-03-16T10:15:07.199Z,10.57
2023-03-16T10:17:40.670Z,10.93
2023-03-16T10:20:14.084Z,10.07
2023-03-16T10:22:46.207Z,11.38
2023-03-16T10:25:23.135Z,11.65
2023-03-16T10:27:51.765Z,10.60
2023-03-16T10:30:25.633Z,10.25
2023-03-16T10:32:53.791Z,11.02
2023-03-16T10:35:31.367Z,11.43
2023-03-16T10:37:59.968Z,11.10
2023-03-16T10:40:31.589Z,10.80
2023-03-16T10:43:06.697Z,10.20
2023-03-16T10:45:37.232Z,10.32
2023-03-16T10:48:09.804Z,11.30
2023-03-16T10:50:37.738Z,13.38
2023-03-16T10:53:05.662Z,11.27
2023-03-16T10:55:43.699Z,11.40
2023-03-16T10:58:11.526Z,11.65
2023-03-16T11:00:45.393Z,11.05
2023-03-16T11:03:23.794Z,11.57
2023-03-16T11:05:58.975Z,10.70
2023-03-16T11:08:28.262Z,10.75
2023-03-16T11:10:58.677Z,10.63
2023-03-16T11:13:34.413Z,10.25
2023-03-16T11:16:14.400Z,10.23
2023-03-16T11:18:46.028Z,10.23
2023-03-16T11:21:19.265Z,9.37
2023-03-16T11:23:49.960Z,9.55
2023-03-16T11:26:24.029Z,9.68
2023-03-16T11:29:01.692Z,10.52
2023-03-16T11:31:42.631Z,10.18
2023-03-16T11:34:15.676Z,10.48
2023-03-16T11:36:51.957Z,10.00
2023-03-16T11:39:31.655Z,10.60
2023-03-16T11:42:15.597Z,11.82
2023-03-16T11:44:51.512Z,11.80
2023-03-16T11:47:44.823Z,11.60
2023-03-16T11:50:18.578Z,11.55
2023-03-16T11:52:55.979Z,11.20
2023-03-16T11:55:32.239Z,9.95
2023-03-16T11:58:11.059Z,11.97
2023-03-16T12:00:52.670Z,12.52
2023-03-16T12:03:59.007Z,10.10
2023-03-16T12:06:44.147Z,9.30
2023-03-16T12:09:51.679Z,9.63
2023-03-16T12:12:39.214Z,9.87
2023-03-16T12:15:21.358Z,9.47
2023-03-16T12:17:51.644Z,9.63
2023-03-16T12:20:24.637Z,8.82
2023-03-16T12:22:56.463Z,8.65
2023-03-16T12:25:29.683Z,8.68
2023-03-16T12:28:01.440Z,7.82
2023-03-16T12:30:42.374Z,8.05
2023-03-16T12:33:19.249Z,8.90
2023-03-16T12:35:56.630Z,9.50
2023-03-16T12:38:36.652Z,8.35
2023-03-16T12:41:17.371Z,8.80
2023-03-16T12:43:58.580Z,8.52
2023-03-16T12:46:33.592Z,8.45
2023-03-16T12:49:05.662Z,7.30
2023-03-16T12:51:36.454Z,8.02
2023-03-16T12:54:05.559Z,7.57
2023-03-16T12:56:35.800Z,7.55
2023-03-16T12:59:07.473Z,7.55
2023-03-16T13:01:40.274Z,6.90
2023-03-16T13:04:13.521Z,5.85
2023-03-16T13:06:48.266Z,6.10
2023-03-16T13:09:21.515Z,8.43
2023-03-16T13:11:51.293Z,6.60
2023-03-16T13:14:38.070Z,10.00
2023-03-16T13:17:22.859Z,6.25
2023-03-16T13:20:08.901Z,15.02
2023-03-16T13:22:47.268Z,20.13
2023-03-16T13:25:22.379Z,7.15
2023-03-16T13:27:53.346Z,9.82
2023-03-16T13:30:24.445Z,12.88
2023-03-16T13:32:55.306Z,5.20
2023-03-16T13:35:27.885Z,5.68
2023-03-16T13:38:05.573Z,5.38
2023-03-16T13:40:34.836Z,5.65
2023-03-16T13:43:03.372Z,5.90
2023-03-16T13:45:35.117Z,5.90
2023-03-16T13:48:03.228Z,5.70
2023-03-16T13:50:33.593Z,5.50
2023-03-16T13:53:05.727Z,5.47
2023-03-16T13:55:36.510Z,4.90
2023-03-16T13:58:05.973Z,5.18
2023-03-16T14:00:36.913Z,4.60
2023-03-16T14:03:16.047Z,4.65
2023-03-16T14:05:44.348Z,4.00
2023-03-16T14:08:19.802Z,4.15
2023-03-16T14:10:48.562Z,3.97
2023-03-16T14:13:26.056Z,4.10
2023-03-16T14:15:55.381Z,3.10
2023-03-16T14:18:35.972Z,3.53
2023-03-16T14:21:09.175Z,5.00
2023-03-16T14:23:41.581Z,3.90
2023-03-16T14:26:13.783Z,3.30
2023-03-16T14:28:43.416Z,3.90
2023-03-16T14:31:13.151Z,5.22
2023-03-16T14:33:44.648Z,3.60
2023-03-16T14:36:14.999Z,3.45
2023-03-16T14:38:45.183Z,3.20
2023-03-16T14:41:22.825Z,2.88
2023-03-16T14:43:53.178Z,3.00
2023-03-16T14:46:29.222Z,3.33
2023-03-16T14:49:07.734Z,3.40
2023-03-16T14:51:36.824Z,3.55
2023-03-16T14:54:13.186Z,4.93
2023-03-16T14:56:42.237Z,3.17
2023-03-16T14:59:10.617Z,3.97
2023-03-16T15:01:39.844Z,3.25
2023-03-16T15:04:08.369Z,3.65
2023-03-16T15:06:36.373Z,2.73
2023-03-16T15:09:04.374Z,4.95
2023-03-16T15:11:33.635Z,3.47
2023-03-16T15:14:14.788Z,3.22
2023-03-16T15:16:43.147Z,3.13
2023-03-16T15:19:10.948Z,2.72
2023-03-16T15:21:38.829Z,3.30
2023-03-16T15:24:07.138Z,3.03
2023-03-16T15:26:36.303Z,3.10
2023-03-16T15:29:04.681Z,3.25
2023-03-16T15:31:32.527Z,3.13
2023-03-16T15:34:00.396Z,3.75
2023-03-16T15:36:28.264Z,3.50
2023-03-16T15:38:56.750Z,3.08
2023-03-16T15:41:26.967Z,3.50
2023-03-16T15:44:00.913Z,3.78
2023-03-16T15:46:29.017Z,3.65
2023-03-16T15:48:56.907Z,3.40
2023-03-16T15:51:27.405Z,5.07
2023-03-16T15:53:58.625Z,4.53
2023-03-16T15:56:29.938Z,4.07
2023-03-16T15:59:01.768Z,5.03
2023-03-16T16:01:34.815Z,6.88
2023-03-16T16:04:03.355Z,5.40
2023-03-16T16:06:32.980Z,4.25
2023-03-16T16:09:01.034Z,6.57
2023-03-16T16:11:29.638Z,3.63
2023-03-16T16:14:00.224Z,5.68
2023-03-16T16:16:29.864Z,4.40
2023-03-16T16:18:58.023Z,4.25
2023-03-16T16:21:28.865Z,3.90
2023-03-16T16:23:56.748Z,3.60
2023-03-16T16:26:41.534Z,5.83
2023-03-16T16:29:17.937Z,3.83
2023-03-16T16:31:45.960Z,3.60
2023-03-16T16:34:15.392Z,4.05
2023-03-16T16:36:43.165Z,3.97
2023-03-16T16:39:12.145Z,4.53
2023-03-16T16:41:40.716Z,4.75
2023-03-16T16:44:17.964Z,4.35
2023-03-16T16:46:46.524Z,4.50
2023-03-16T16:49:19.507Z,5.30
2023-03-16T16:51:47.584Z,4.40
2023-03-16T16:54:17.517Z,4.18
2023-03-16T16:56:46.399Z,4.20
2023-03-16T16:59:19.139Z,4.50
2023-03-16T17:01:48.811Z,5.97
2023-03-16T17:04:19.076Z,6.38
2023-03-16T17:06:47.888Z,4.35
2023-03-16T17:09:16.115Z,4.75
2023-03-16T17:11:46.533Z,4.18
2023-03-16T17:14:18.953Z,4.40
2023-03-16T17:16:48.382Z,4.45
2023-03-16T17:19:21.457Z,5.00
2023-03-16T17:21:49.787Z,4.28
2023-03-16T17:24:17.769Z,4.25
2023-03-16T17:26:47.701Z,4.50
2023-03-16T17:29:22.435Z,4.25
2023-03-16T17:31:51.514Z,5.10
2023-03-16T17:34:21.303Z,4.60
2023-03-16T17:36:49.433Z,4.53
2023-03-16T17:39:21.123Z,4.50
2023-03-16T17:41:50.334Z,5.45
2023-03-16T17:44:19.955Z,5.75
2023-03-16T17:46:49.349Z,6.30
2023-03-16T17:49:18.347Z,4.95
2023-03-16T17:51:46.557Z,5.03
2023-03-16T17:54:14.622Z,5.78
2023-03-16T17:56:42.551Z,4.40
2023-03-16T17:59:17.394Z,4.88
2023-03-16T18:01:45.969Z,4.00
2023-03-16T18:04:18.411Z,4.20
2023-03-16T18:06:48.069Z,4.57
2023-03-16T18:09:16.765Z,5.68
2023-03-16T18:11:47.547Z,4.45
2023-03-16T18:14:25.361Z,3.87
2023-03-16T18:16:54.674Z,4.07
2023-03-16T18:19:25.549Z,4.57
2023-03-16T18:21:54.467Z,4.63
2023-03-16T18:24:25.563Z,5.40
2023-03-16T18:26:53.685Z,4.88
2023-03-16T18:29:22.284Z,4.30
2023-03-16T18:31:51.738Z,4.80
2023-03-16T18:34:24.102Z,4.72
2023-03-16T18:36:54.764Z,4.30
2023-03-16T18:39:23.142Z,4.47
2023-03-16T18:41:50.973Z,5.43
2023-03-16T18:44:21.410Z,4.45
2023-03-16T18:46:50.045Z,5.53
2023-03-16T18:49:20.226Z,4.70
2023-03-16T18:51:52.250Z,6.13
2023-03-16T18:54:22.465Z,5.85
2023-03-16T18:56:50.537Z,8.55
2023-03-16T18:59:18.561Z,6.85
2023-03-16T19:01:47.767Z,5.23
2023-03-16T19:04:21.466Z,4.20
2023-03-16T19:06:53.584Z,4.72
2023-03-16T19:09:23.794Z,5.32
2023-03-16T19:11:51.991Z,4.95
2023-03-16T19:14:22.488Z,5.43
2023-03-16T19:16:50.836Z,4.75
2023-03-16T19:19:21.186Z,4.97
2023-03-16T19:21:52.920Z,4.20
2023-03-16T19:24:24.509Z,4.40
2023-03-16T19:26:52.469Z,4.15
2023-03-16T19:29:22.884Z,5.72
2023-03-16T19:31:58.763Z,5.20
2023-03-16T19:34:27.159Z,4.47
2023-03-16T19:36:56.415Z,5.18
2023-03-16T19:39:24.193Z,5.10
2023-03-16T19:41:57.793Z,4.72
2023-03-16T19:44:28.802Z,4.57
2023-03-16T19:46:59.000Z,4.63
2023-03-16T19:49:28.005Z,4.20
2023-03-16T19:51:57.532Z,4.40
2023-03-16T19:54:26.674Z,4.33
2023-03-16T19:56:55.959Z,4.90
2023-03-16T19:59:33.697Z,4.82
2023-03-16T20:02:01.638Z,4.60
2023-03-16T20:04:30.230Z,8.70
2023-03-16T20:06:59.497Z,6.35
2023-03-16T20:09:27.353Z,7.10
2023-03-16T20:11:55.230Z,5.65
2023-03-16T20:14:32.086Z,5.18
2023-03-16T20:17:00.215Z,5.20
2023-03-16T20:19:28.468Z,8.52
2023-03-16T20:21:56.903Z,5.20
2023-03-16T20:24:26.085Z,5.18
2023-03-16T20:26:54.486Z,5.97
2023-03-16T20:29:25.632Z,5.22
2023-03-16T20:31:53.636Z,5.57
2023-03-16T20:34:26.465Z,5.10
2023-03-16T20:36:54.649Z,5.30
2023-03-16T20:39:22.629Z,5.28
2023-03-16T20:41:53.421Z,5.50
2023-03-16T20:44:23.474Z,6.28
2023-03-16T20:46:51.394Z,5.80
2023-03-16T20:49:31.677Z,6.28
2023-03-16T20:52:00.105Z,6.43
2023-03-16T20:54:28.268Z,6.53
2023-03-16T20:56:57.492Z,6.17
2023-03-16T20:59:26.647Z,5.57
2023-03-16T21:01:55.573Z,5.80
2023-03-16T21:04:26.016Z,6.03
2023-03-16T21:06:53.967Z,6.05
2023-03-16T21:09:22.303Z,5.72
2023-03-16T21:11:50.459Z,5.30
2023-03-16T21:14:23.371Z,5.53
2023-03-16T21:16:52.334Z,5.65
2023-03-16T21:19:22.650Z,5.60
2023-03-16T21:21:50.853Z,6.72
2023-03-16T21:24:18.617Z,5.40
2023-03-16T21:26:47.346Z,5.80
2023-03-16T21:29:20.669Z,4.97
2023-03-16T21:31:50.197Z,5.22
2023-03-16T21:34:24.930Z,5.28
2023-03-16T21:36:54.554Z,5.30
2023-03-16T21:39:24.829Z,5.20
2023-03-16T21:41:53.385Z,5.13
2023-03-16T21:44:21.195Z,5.15
2023-03-16T21:46:50.826Z,6.72
2023-03-16T21:49:18.677Z,5.97
2023-03-16T21:51:46.484Z,5.38
2023-03-16T21:54:16.311Z,5.93
2023-03-16T21:56:44.498Z,5.82
2023-03-16T21:59:12.967Z,5.70
2023-03-16T22:01:58.204Z,5.47
2023-03-16T22:04:29.954Z,5.75
2023-03-16T22:06:57.809Z,5.45
2023-03-16T22:09:29.778Z,5.53
2023-03-16T22:11:57.605Z,5.70
2023-03-16T22:14:25.477Z,6.20
2023-03-16T22:16:53.431Z,5.72
2023-03-16T22:19:21.333Z,6.30
2023-03-16T22:21:50.967Z,5.82
2023-03-16T22:24:21.496Z,6.13
2023-03-16T22:26:50.708Z,5.70
2023-03-16T22:29:23.279Z,6.05
2023-03-16T22:31:53.555Z,5.88
2023-03-16T22:34:29.702Z,6.53
2023-03-16T22:36:59.606Z,6.13
2023-03-16T22:39:27.785Z,7.13
2023-03-16T22:41:55.642Z,6.30
2023-03-16T22:44:24.427Z,6.03
2023-03-16T22:46:52.350Z,6.47
2023-03-16T22:49:22.231Z,7.80
2023-03-16T22:51:52.556Z,6.65
2023-03-16T22:54:27.197Z,8.00
2023-03-16T22:56:55.239Z,6.45
2023-03-16T22:59:25.814Z,7.32
2023-03-16T23:01:53.736Z,6.40
2023-03-16T23:04:23.379Z,8.95
2023-03-16T23:06:54.612Z,6.35
2023-03-16T23:09:23.808Z,7.20
2023-03-16T23:11:54.142Z,6.43
2023-03-16T23:14:24.136Z,6.18
2023-03-16T23:16:52.929Z,7.25
2023-03-16T23:19:25.195Z,6.57
2023-03-16T23:21:54.689Z,7.28
2023-03-16T23:24:24.126Z,6.60
2023-03-16T23:26:53.316Z,6.20
2023-03-16T23:29:22.382Z,6.55
2023-03-16T23:31:50.287Z,6.60
2023-03-16T23:34:20.570Z,7.10
2023-03-16T23:36:48.413Z,6.55
2023-03-16T23:39:16.283Z,6.35
2023-03-16T23:41:47.578Z,6.55
2023-03-16T23:44:17.811Z,6.32
2023-03-16T23:46:45.773Z,7.43
2023-03-16T23:49:19.910Z,6.32
2023-03-16T23:51:48.060Z,6.53
2023-03-16T23:54:19.987Z,6.22
2023-03-16T23:56:49.414Z,6.13
2023-03-16T23:59:17.374Z,6.53
